Flight Track Log - Related Links

Times and Time Zones

All times are in EDT time to prevent confusion due to time zone crossing. See the CTL13 flight status page for this flight to view local times or setup timezone preferences in your user account.

Time Position Orientation Groundspeed Altitude Reporting Facility
EDT Latitude Longitude Course Direction KTS MPH feet Rate Location/Type
Tue 06:39:56 PM 41.5147 -81.7006 341° North 142 163 800  Level Cleveland Center
Tue 06:40:38 PM 41.5458 -81.7150 341° North 165 190 1,400 857 Climbing Cleveland Center
Tue 06:41:27 PM 41.5686 -81.7378 323° Northwest 147 169 2,100 826 Climbing Cleveland Center
Tue 06:42:27 PM 41.5825 -81.7878 290° West 146 168 2,900 893 Climbing Cleveland Center
Tue 06:43:28 PM 41.5925 -81.8353 286° West 117 135 3,900 590 Climbing Cleveland Center
Tue 06:44:29 PM 41.5961 -81.8881 275° West 157 181 4,100  Climbing Cleveland Center
Tue 06:45:35 PM 41.5994 -81.9575 274° West 170 196 3,900 -66 Descending Cleveland Center
Tue 06:47:30 PM 41.5731 -82.0569 250° West 146 168 3,900  Level Cleveland Center
Tue 06:48:19 PM 41.5561 -82.0928 238° Southwest 151 174 3,900 49 Level Cleveland Center
Tue 06:49:32 PM 41.5281 -82.1503 237° Southwest 142 163 4,000 45 Climbing Cleveland Center
Tue 06:50:32 PM 41.5086 -82.1969 241° Southwest 147 169 4,000  Level Cleveland Center
Tue 06:52:00 PM 41.4816 -82.2676 243° Southwest  Level Estimated
Tue 06:59:00 PM 41.3520 -82.6041 243° Southwest  Level Estimated
Tue 07:00:00 PM 41.3335 -82.6521 243° Southwest  Level Estimated
Tue 07:01:00 PM 41.3148 -82.7000 243° Southwest  Level Estimated
Tue 07:02:00 PM 41.2962 -82.7479 243° Southwest  Level Estimated
Tue 07:03:00 PM 41.2776 -82.7958 243° Southwest  Level Estimated
Tue 07:04:00 PM 41.2589 -82.8437 243° Southwest  Level Estimated
Tue 07:05:00 PM 41.2402 -82.8915 243° Southwest  Level Estimated
Tue 07:06:00 PM 41.2215 -82.9393 243° Southwest  Level Estimated
Tue 07:07:00 PM 41.2028 -82.9871 242° Southwest  Level Estimated
Tue 07:08:00 PM 41.1840 -83.0348 242° Southwest  Level Estimated
Tue 07:09:00 PM 41.1652 -83.0825 242° Southwest  Level Estimated
Tue 07:10:00 PM 41.1465 -83.1302 242° Southwest  Level Estimated
Tue 07:11:00 PM 41.1277 -83.1779 242° Southwest  Level Estimated
Tue 07:12:00 PM 41.1088 -83.2255 242° Southwest  Level Estimated
Tue 07:13:00 PM 41.0900 -83.2731 242° Southwest  Level Estimated
Tue 07:14:00 PM 41.0712 -83.3207 242° Southwest  Level Estimated
Tue 07:14:58 PM 41.0178 -83.3147 242° Southwest 145 167 4,000  Level Indianapolis Center
Tue 07:15:00 PM 41.0523 -83.3682 242° Southwest  Level Estimated
Tue 07:16:00 PM 41.0334 -83.4158 242° Southwest  Level Estimated
Tue 07:16:00 PM 40.9964 -83.3586 237° Southwest 142 163 4,000  Level Indianapolis Center
Tue 07:17:00 PM 41.0145 -83.4633 242° Southwest  Level Estimated
Tue 07:17:02 PM 40.9758 -83.4028 238° Southwest 140 161 4,000  Level Indianapolis Center
Tue 07:18:00 PM 40.9955 -83.5107 242° Southwest  Level Estimated
Tue 07:18:04 PM 40.9556 -83.4469 239° Southwest 140 161 4,000  Level Indianapolis Center
Tue 07:19:00 PM 40.9766 -83.5582 242° Southwest  Level Estimated
Tue 07:19:06 PM 40.9336 -83.4933 238° Southwest 146 168 4,000  Level Indianapolis Center
Tue 07:20:00 PM 40.9576 -83.6056 242° Southwest  Level Estimated
Tue 07:20:08 PM 40.9119 -83.5439 240° Southwest 147 169 4,000  Level Indianapolis Center
Tue 07:21:10 PM 40.8903 -83.5881 237° Southwest 146 168 4,000  Level Indianapolis Center
Tue 07:22:12 PM 40.8692 -83.6308 237° Southwest 142 163 4,000  Level Indianapolis Center
Tue 07:23:13 PM 40.8492 -83.6769 240° Southwest 142 163 4,000  Level Indianapolis Center
Tue 07:24:15 PM 40.8281 -83.7203 237° Southwest 141 162 4,000  Level Indianapolis Center
Tue 07:25:17 PM 40.8072 -83.7642 238° Southwest 140 161 4,000  Level Indianapolis Center
Tue 07:26:19 PM 40.7831 -83.8164 239° Southwest 141 162 4,000  Level Indianapolis Center
Tue 07:27:21 PM 40.7617 -83.8611 238° Southwest 143 165 4,000 -48 Level Indianapolis Center
Tue 07:28:23 PM 40.7394 -83.9028 235° Southwest 141 162 3,900 -56 Descending Indianapolis Center
Tue 07:29:08 PM 40.7225 -83.9397 239° Southwest 140 161 3,900  Level Indianapolis Center
Tue 07:29:24 PM 40.7178 -83.9475 231° Southwest 142 163 3,900  Level Indianapolis Center
Tue 07:30:09 PM 40.7003 -83.9836 237° Southwest 142 163 3,900 97 Level Indianapolis Center
Tue 07:30:26 PM 40.6975 -83.9917 246° West 141 162 4,000 98 Climbing Indianapolis Center
Tue 07:31:10 PM 40.6842 -84.0311 246° West 146 168 4,000 -97 Level Indianapolis Center
Tue 07:31:28 PM 40.6800 -84.0406 240° Southwest 143 165 3,900  Descending Indianapolis Center
Tue 07:32:10 PM 40.6658 -84.0781 244° Southwest 146 168 4,000  Climbing Indianapolis Center
Tue 07:32:30 PM 40.6625 -84.0892 248° West 144 166 3,900  Descending Indianapolis Center
Tue 07:33:11 PM 40.6475 -84.1253 241° Southwest 144 166 4,000 98 Climbing Indianapolis Center
Tue 07:33:31 PM 40.6450 -84.1358 253° West 143 165 4,000 -98 Level Indianapolis Center
Tue 07:34:12 PM 40.6289 -84.1750 242° Southwest 145 167 3,900  Descending Indianapolis Center
Tue 07:34:33 PM 40.6242 -84.1919 250° West 143 165 4,000  Climbing Indianapolis Center
Tue 07:35:13 PM 40.6125 -84.2250 245° Southwest 144 166 3,900  Descending Indianapolis Center
Tue 07:35:35 PM 40.6083 -84.2400 250° West 143 165 4,000 98 Climbing Indianapolis Center
Tue 07:36:14 PM 40.5942 -84.2722 240° Southwest 142 163 4,000  Level Indianapolis Center
Tue 07:36:37 PM 40.5894 -84.2872 247° West 145 167 4,000 -91 Level Indianapolis Center
Tue 07:37:20 PM 40.5756 -84.3219 242° Southwest 141 162 3,900  Descending Indianapolis Center
Tue 07:37:38 PM 40.5706 -84.3364 246° West 146 168 4,000 98 Climbing Indianapolis Center
Tue 07:38:21 PM 40.5592 -84.3692 245° Southwest 143 165 4,000  Level Indianapolis Center
Tue 07:38:40 PM 40.5550 -84.3808 245° Southwest 142 163 4,000  Level Indianapolis Center
Tue 07:39:22 PM 40.5386 -84.4183 240° Southwest 142 163 4,000  Level Indianapolis Center
Tue 07:39:42 PM 40.5375 -84.4219 248° West 138 159 4,000  Level Indianapolis Center
Tue 07:40:22 PM 40.5200 -84.4653 242° Southwest 145 167 4,000  Level Indianapolis Center
Tue 07:41:17 PM 40.5061 -84.5100 248° West 148 170 4,000  Level Indianapolis Center
Tue 07:41:58 PM 40.4953 -84.5386 244° Southwest 141 162 4,000  Level Indianapolis Center
Tue 07:42:18 PM 40.4875 -84.5569 241° Southwest 142 163 4,000  Level Indianapolis Center
Tue 07:43:19 PM 40.4711 -84.6042 245° Southwest 143 165 4,000  Level Indianapolis Center
Tue 07:44:20 PM 40.4467 -84.6472 233° Southwest 143 165 4,000 47 Level Indianapolis Center
Tue 07:45:27 PM 40.4144 -84.6839 221° Southwest 133 153 4,100  Climbing Indianapolis Center
Tue 07:46:27 PM 40.3900 -84.7242 231° Southwest 141 162 4,000 -52 Descending Indianapolis Center
Tue 07:47:22 PM 40.3642 -84.7564 224° Southwest 138 159 4,000  Level Indianapolis Center
Tue 07:47:43 PM 40.3583 -84.7606 209° Southwest 140 161 4,000  Level Indianapolis Center
Tue 07:48:23 PM 40.3381 -84.7936 231° Southwest 136 157 4,000  Level Indianapolis Center
Tue 07:48:45 PM 40.3325 -84.7983 213° Southwest 139 160 4,000  Level Indianapolis Center
Tue 07:49:35 PM 40.3050 -84.8383 228° Southwest 139 160 4,000 -57 Level Indianapolis Center
Tue 07:50:30 PM 40.2836 -84.8681 227° Southwest 137 158 3,900  Descending Indianapolis Center
Tue 07:50:48 PM 40.2744 -84.8758 213° Southwest 136 157 4,000 98 Climbing Indianapolis Center
Tue 07:51:31 PM 40.2553 -84.9050 229° Southwest 134 154 4,000  Level Indianapolis Center
Tue 07:51:50 PM 40.2489 -84.9114 217° Southwest 134 154 4,000  Level Indianapolis Center
Tue 07:52:32 PM 40.2292 -84.9422 230° Southwest 137 158 4,000 -97 Level Indianapolis Center
Tue 07:52:52 PM 40.2214 -84.9489 213° Southwest 137 158 3,900  Descending Indianapolis Center
Tue 07:53:32 PM 40.2011 -84.9767 226° Southwest 138 159 4,000 98 Climbing Indianapolis Center
Tue 07:53:53 PM 40.1947 -84.9839 221° Southwest 137 158 4,000  Level Indianapolis Center
Tue 07:54:33 PM 40.1733 -85.0081 221° Southwest 134 154 4,000  Level Indianapolis Center
Tue 07:54:55 PM 40.1661 -85.0181 227° Southwest 137 158 4,000  Level Indianapolis Center
Tue 07:55:34 PM 40.1528 -85.0517 243° Southwest 145 167 4,000  Level Indianapolis Center
Tue 07:55:57 PM 40.1475 -85.0625 237° Southwest 139 160 4,000 100 Level Indianapolis Center
Tue 07:56:34 PM 40.1422 -85.1019 260° West 144 166 4,100 98 Climbing Indianapolis Center
Tue 07:56:58 PM 40.1378 -85.1125 241° Southwest 140 161 4,100  Level Indianapolis Center
Tue 07:58:00 PM 40.1228 -85.1692 251° West 140 161 4,100  Level Indianapolis Center
Tue 07:59:01 PM 40.1111 -85.2189 253° West 141 162 4,100  Level Indianapolis Center
Tue 08:00:03 PM 40.0994 -85.2672 253° West 140 161 4,100 -48 Level Indianapolis Center
Tue 08:01:05 PM 40.0886 -85.3156 254° West 140 161 4,000 -49 Descending Indianapolis Center
Tue 08:02:06 PM 40.0767 -85.3653 253° West 141 162 4,000  Level Indianapolis Center
Tue 08:03:08 PM 40.0639 -85.4122 250° West 138 159 4,000  Level Indianapolis Center
Tue 08:04:10 PM 40.0503 -85.4600 250° West 139 160 4,000  Level Indianapolis Center
Tue 08:05:11 PM 40.0378 -85.5058 250° West 136 157 4,000  Level Indianapolis Center
Tue 08:06:13 PM 40.0253 -85.5550 252° West 138 159 4,000  Level Indianapolis Center
Tue 08:07:14 PM 40.0111 -85.6100 251° West 138 159 4,000  Level Indianapolis Center
Tue 08:08:16 PM 39.9986 -85.6561 251° West 136 157 4,000  Level Indianapolis Center
Tue 08:09:18 PM 39.9869 -85.7022 252° West 135 155 4,000  Level Indianapolis Center
Tue 08:10:19 PM 39.9758 -85.7475 252° West 131 151 4,000  Level Indianapolis Center
Tue 08:11:21 PM 39.9633 -85.7944 251° West 134 154 4,000  Level Indianapolis Center
Tue 08:12:22 PM 39.9511 -85.8400 251° West 134 154 4,000  Level Indianapolis Center
Tue 08:13:24 PM 39.9400 -85.8864 253° West 133 153 4,000  Level Indianapolis Center
Tue 08:14:26 PM 39.9336 -85.9369 261° West 137 158 4,000 -439 Level Indianapolis Center
Tue 08:15:27 PM 39.9319 -86.0019 268° West 147 169 3,100 -488 Descending Indianapolis Center
Tue 08:16:29 PM 39.9292 -86.0628 267° West 159 183 3,000 -49 Descending Indianapolis Center
Tue 08:17:30 PM 39.9253 -86.1175 265° West 157 181 3,000 -49 Level Indianapolis Center
Tue 08:18:32 PM 39.9244 -86.1708 269° West 152 175 2,900 -49 Descending Indianapolis Center
Tue 08:19:33 PM 39.9250 -86.2217 271° West 145 167 2,900  Level Indianapolis Center
Tue 08:21:00 PM 39.8772 -86.2586 249° West  Level Estimated
Tue 08:28:00 PM 39.8308 -86.2944 90° East  Level Estimated
Tue 08:29:00 PM 39.8308 -86.2944 90° East  Level Estimated
Tue 08:30:00 PM 39.8308 -86.2944 90° East  Level Estimated

Login

Don't have an account? Register now (free) for customized features, flight alerts, and more!